Time;durP1;ratioP1;P1;durP2;ratioP2;P2;SDS_P1;SDS_P2;PMS_P1;PMS_P2;Temp;Humidity;BMP_temperature;BMP_pressure;BME280_temperature;BME280_humidity;BME280_pressure;Samples;Min_cycle;Max_cycle;Signal;HPM_P1;HPM_P2
2024/03/09 00:00:03;;;;;;;9.75;8.77;;;8.30;81.30;;;;;;4992797;28;113776;-50
2024/03/09 00:02:28;;;;;;;10.55;9.45;;;8.20;81.50;;;;;;4993509;28;113136;-42
2024/03/09 00:04:55;;;;;;;10.13;9.23;;;8.10;81.90;;;;;;4996449;28;112832;-42
2024/03/09 00:07:21;;;;;;;10.70;9.60;;;8.10;82.10;;;;;;4996133;28;114515;-52
2024/03/09 00:09:47;;;;;;;11.00;9.90;;;8.00;82.10;;;;;;4989069;28;112683;-43
2024/03/09 00:12:14;;;;;;;11.57;10.30;;;8.10;82.50;;;;;;4990166;28;113041;-55
2024/03/09 00:14:41;;;;;;;10.88;9.52;;;8.10;82.00;;;;;;4989130;28;112739;-50
2024/03/09 00:17:07;;;;;;;10.30;9.38;;;8.20;82.00;;;;;;4988808;28;114478;-49
2024/03/09 00:19:33;;;;;;;11.27;10.02;;;8.10;82.00;;;;;;5005819;28;113140;-46
2024/03/09 00:21:58;;;;;;;10.20;8.68;;;8.10;82.30;;;;;;5008833;28;112591;-54
2024/03/09 00:24:24;;;;;;;9.50;8.60;;;8.20;81.70;;;;;;5009511;28;113085;-41
2024/03/09 00:26:49;;;;;;;10.43;9.35;;;8.20;81.60;;;;;;5008918;28;114541;-51
2024/03/09 00:29:15;;;;;;;10.13;9.13;;;8.10;81.80;;;;;;5008722;28;112656;-46
2024/03/09 00:31:41;;;;;;;9.68;8.77;;;8.10;82.20;;;;;;5009587;28;113117;-47
2024/03/09 00:34:07;;;;;;;10.15;9.15;;;8.10;82.20;;;;;;5010020;28;112905;-46
2024/03/09 00:36:33;;;;;;;10.35;8.68;;;8.00;82.40;;;;;;5007048;28;116704;-44
2024/03/09 00:38:59;;;;;;;10.20;9.13;;;8.00;82.50;;;;;;5008691;28;113594;-47
2024/03/09 00:41:25;;;;;;;9.52;8.57;;;8.00;82.70;;;;;;5009943;28;113316;-51
2024/03/09 00:43:54;;;;;;;9.73;8.80;;;8.10;82.40;;;;;;5009715;28;112855;-51
2024/03/09 00:46:20;;;;;;;10.13;9.13;;;8.20;82.20;;;;;;5008336;28;113910;-45
2024/03/09 00:48:46;;;;;;;10.05;9.02;;;8.20;82.20;;;;;;5008438;28;114046;-53
2024/03/09 00:51:12;;;;;;;9.10;8.15;;;8.20;82.20;;;;;;5006381;28;112933;-46
2024/03/09 00:53:38;;;;;;;10.70;9.60;;;8.10;82.00;;;;;;5008797;28;113140;-45
2024/03/09 00:56:05;;;;;;;10.45;9.45;;;8.10;82.50;;;;;;5008376;28;113210;-46
2024/03/09 00:58:32;;;;;;;10.38;9.30;;;8.00;82.90;;;;;;5008315;28;112842;-42
2024/03/09 01:00:58;;;;;;;12.05;9.48;;;8.10;82.70;;;;;;5009005;28;113017;-43
2024/03/09 01:03:24;;;;;;;10.75;9.13;;;8.00;82.80;;;;;;5009751;28;113220;-49
2024/03/09 01:05:49;;;;;;;10.23;9.23;;;8.10;82.70;;;;;;5008287;28;114742;-46
2024/03/09 01:08:15;;;;;;;10.57;9.57;;;8.10;83.00;;;;;;5008440;28;112568;-42
2024/03/09 01:10:41;;;;;;;9.70;8.77;;;8.20;82.30;;;;;;5009166;28;112600;-47
2024/03/09 01:13:08;;;;;;;9.50;7.65;;;8.10;82.60;;;;;;5009032;28;114036;-47
2024/03/09 01:15:35;;;;;;;9.50;8.48;;;8.10;82.70;;;;;;5007930;28;113446;-43
2024/03/09 01:18:02;;;;;;;9.27;8.38;;;8.10;82.50;;;;;;4994074;28;113395;-52
2024/03/09 01:20:28;;;;;;;10.30;9.18;;;8.00;82.40;;;;;;5009108;28;112972;-42
2024/03/09 01:22:54;;;;;;;9.85;8.85;;;8.10;82.80;;;;;;5009245;28;112754;-43
2024/03/09 01:25:19;;;;;;;8.82;8.02;;;8.20;82.40;;;;;;5007795;28;114648;-46
2024/03/09 01:27:46;;;;;;;13.07;9.25;;;8.10;82.40;;;;;;5007867;28;113712;-50
2024/03/09 01:30:12;;;;;;;11.02;8.98;;;8.00;82.60;;;;;;5008978;28;113260;-43
2024/03/09 01:32:43;;;;;;;10.27;9.02;;;8.20;82.50;;;;;;5008815;28;112978;-45
2024/03/09 01:35:09;;;;;;;10.43;9.32;;;8.20;82.60;;;;;;5006875;28;114509;-42
2024/03/09 01:37:35;;;;;;;11.50;8.43;;;8.10;82.50;;;;;;5007863;28;112933;-50
2024/03/09 01:40:01;;;;;;;11.98;9.45;;;8.10;82.60;;;;;;5008798;28;112920;-54
2024/03/09 01:42:28;;;;;;;10.40;9.30;;;8.10;82.60;;;;;;5008713;28;112770;-47
2024/03/09 01:44:55;;;;;;;11.05;9.43;;;8.20;82.70;;;;;;5007500;28;114322;-42
2024/03/09 01:47:26;;;;;;;9.30;8.32;;;8.30;82.30;;;;;;5007649;28;112964;-45
2024/03/09 01:49:52;;;;;;;9.35;8.45;;;8.30;81.90;;;;;;5008760;28;113016;-47
2024/03/09 01:52:21;;;;;;;10.05;8.90;;;8.10;82.40;;;;;;5008712;28;112658;-52
2024/03/09 01:54:49;;;;;;;10.07;8.85;;;8.00;82.70;;;;;;5007651;28;113349;-41
2024/03/09 01:57:15;;;;;;;10.77;9.68;;;8.00;82.80;;;;;;5007279;28;114217;-45
2024/03/09 01:59:47;;;;;;;10.43;8.82;;;7.90;83.10;;;;;;5008611;28;112670;-42
2024/03/09 02:02:13;;;;;;;;;;;7.90;83.20;;;;;;5008564;28;112639;-47
2024/03/09 02:04:41;;;;;;;10.68;9.63;;;7.90;83.40;;;;;;5008889;28;113135;-48
2024/03/09 02:07:07;;;;;;;11.35;10.07;;;7.90;83.80;;;;;;5007289;28;113017;-47
2024/03/09 02:09:34;;;;;;;13.50;11.57;;;7.90;83.10;;;;;;5007172;28;113194;-43
2024/03/09 02:12:06;;;;;;;10.68;9.57;;;7.90;83.40;;;;;;5007180;28;112780;-42
2024/03/09 02:14:33;;;;;;;10.45;9.43;;;7.90;83.30;;;;;;5007139;28;115483;-47
2024/03/09 02:17:02;;;;;;;10.98;9.77;;;7.90;83.30;;;;;;4997705;28;113069;-43
2024/03/09 02:19:30;;;;;;;10.70;9.30;;;7.90;83.50;;;;;;5005089;28;112669;-50
2024/03/09 02:21:56;;;;;;;10.27;9.27;;;8.00;83.50;;;;;;5008489;28;113020;-45
2024/03/09 02:24:24;;;;;;;10.82;9.30;;;8.00;83.30;;;;;;5006898;28;113114;-48
2024/03/09 02:26:50;;;;;;;10.13;9.10;;;8.00;83.00;;;;;;5006841;28;113734;-45
2024/03/09 02:29:18;;;;;;;10.57;8.88;;;7.90;83.40;;;;;;5007763;28;112870;-41
2024/03/09 02:31:44;;;;;;;9.45;8.32;;;8.00;83.20;;;;;;5008175;28;112752;-55
2024/03/09 02:34:10;;;;;;;9.40;8.50;;;7.90;83.10;;;;;;5007110;28;113748;-50
2024/03/09 02:36:38;;;;;;;10.63;9.20;;;7.90;83.30;;;;;;5006578;28;114242;-41
2024/03/09 02:39:07;;;;;;;10.82;9.50;;;7.80;83.60;;;;;;5008007;28;112865;-43
2024/03/09 02:41:33;;;;;;;11.93;9.40;;;7.90;84.00;;;;;;5007864;28;113181;-48
2024/03/09 02:43:58;;;;;;;11.05;9.75;;;7.90;84.10;;;;;;5006837;28;114785;-43
2024/03/09 02:46:27;;;;;;;10.77;9.52;;;7.90;83.80;;;;;;5007401;28;113761;-44
2024/03/09 02:48:53;;;;;;;11.10;10.00;;;7.90;84.10;;;;;;5010302;28;113208;-48
2024/03/09 02:51:20;;;;;;;10.32;9.32;;;7.90;83.90;;;;;;5010350;28;112833;-51
2024/03/09 02:53:46;;;;;;;10.80;9.60;;;7.90;83.80;;;;;;4997913;28;113202;-54
2024/03/09 02:56:18;;;;;;;11.90;10.10;;;7.90;84.20;;;;;;5008826;28;113007;-44
2024/03/09 02:58:44;;;;;;;11.43;9.80;;;7.90;83.90;;;;;;4996083;28;112578;-49
2024/03/09 03:01:11;;;;;;;11.20;10.00;;;7.90;84.30;;;;;;5009833;28;112879;-49
2024/03/09 03:06:24;;;;;;;11.02;9.88;;;8.00;84.50;;;;;;4996922;28;113070;-41
2024/03/09 03:08:55;;;;;;;11.40;10.27;;;8.00;84.60;;;;;;5008587;28;112559;-47
2024/03/09 03:11:22;;;;;;;10.98;9.88;;;8.10;84.40;;;;;;5010141;28;112814;-42
2024/03/09 03:13:49;;;;;;;11.25;10.15;;;8.00;84.70;;;;;;5009582;28;114603;-49
2024/03/09 03:16:35;;;;;;;10.85;9.75;;;8.00;84.40;;;;;;5009161;28;112992;-47
2024/03/09 03:19:09;;;;;;;11.80;10.60;;;8.00;84.40;;;;;;5010757;28;113325;-41
2024/03/09 03:21:41;;;;;;;12.15;10.95;;;8.00;85.00;;;;;;5010384;28;112850;-41
2024/03/09 03:24:10;;;;;;;12.55;11.25;;;7.90;84.90;;;;;;4994545;28;113303;-44
2024/03/09 03:26:36;;;;;;;11.65;10.45;;;7.90;85.10;;;;;;5008852;28;112964;-42
2024/03/09 03:29:01;;;;;;;12.48;10.50;;;8.00;85.10;;;;;;5009519;28;112535;-42
2024/03/09 03:31:28;;;;;;;10.95;9.82;;;8.10;84.70;;;;;;5010011;28;112752;-50
2024/03/09 03:33:56;;;;;;;11.63;10.40;;;8.00;84.70;;;;;;5009948;28;113168;-46
2024/03/09 03:36:23;;;;;;;13.18;11.35;;;7.90;85.00;;;;;;5008503;28;113739;-47
2024/03/09 03:38:50;;;;;;;11.90;10.70;;;7.90;85.20;;;;;;5009975;28;112553;-43
2024/03/09 03:41:18;;;;;;;11.85;10.55;;;7.90;85.10;;;;;;5009921;28;112873;-51
2024/03/09 03:43:44;;;;;;;13.10;10.63;;;7.90;85.40;;;;;;5008572;28;113317;-42
2024/03/09 03:46:12;;;;;;;11.45;10.27;;;7.90;85.40;;;;;;5008628;28;113116;-41
2024/03/09 03:48:44;;;;;;;12.48;11.07;;;7.90;85.50;;;;;;5009584;28;113045;-43
2024/03/09 03:51:12;;;;;;;11.63;10.43;;;7.80;85.70;;;;;;5009441;28;112643;-47
2024/03/09 03:53:39;;;;;;;12.52;10.70;;;7.80;85.50;;;;;;5007136;28;113253;-48
2024/03/09 03:56:07;;;;;;;12.27;10.90;;;7.90;85.70;;;;;;5008496;28;112968;-41
2024/03/09 03:58:44;;;;;;;11.68;10.50;;;8.00;85.50;;;;;;5008455;28;112928;-45
2024/03/09 04:01:10;;;;;;;11.73;10.52;;;7.90;85.50;;;;;;5009447;28;112647;-45
2024/03/09 04:03:37;;;;;;;12.57;11.27;;;7.90;85.70;;;;;;5008340;28;113222;-47
2024/03/09 04:06:04;;;;;;;12.57;10.98;;;7.90;85.70;;;;;;5008158;28;114002;-49
2024/03/09 04:08:30;;;;;;;14.05;11.27;;;7.90;85.90;;;;;;5009177;28;113230;-46
2024/03/09 04:10:57;;;;;;;12.43;11.23;;;7.90;86.00;;;;;;5009356;28;113035;-41
2024/03/09 04:13:24;;;;;;;13.82;11.65;;;7.90;86.00;;;;;;5008039;28;113590;-52
2024/03/09 04:15:52;;;;;;;12.95;11.02;;;7.80;86.20;;;;;;5008167;28;113755;-41
2024/03/09 04:18:18;;;;;;;13.98;12.07;;;7.80;86.40;;;;;;5009211;28;112670;-42
2024/03/09 04:20:44;;;;;;;13.10;11.80;;;7.90;86.30;;;;;;5007567;28;112971;-42
2024/03/09 04:23:16;;;;;;;12.52;11.23;;;8.00;85.90;;;;;;5008162;28;113478;-45
2024/03/09 04:25:44;;;;;;;12.02;10.82;;;7.90;85.90;;;;;;5007841;28;113925;-46
2024/03/09 04:28:13;;;;;;;12.57;10.98;;;7.90;86.00;;;;;;5009230;28;112692;-47
2024/03/09 04:30:42;;;;;;;13.13;11.73;;;7.90;86.00;;;;;;5008723;28;112925;-46
2024/03/09 04:33:11;;;;;;;14.65;10.77;;;7.90;86.20;;;;;;5006309;28;116250;-42
2024/03/09 04:35:41;;;;;;;12.82;10.77;;;7.80;86.30;;;;;;5007687;28;112840;-42
2024/03/09 04:38:07;;;;;;;11.82;10.63;;;7.90;86.10;;;;;;5008696;28;112584;-56
2024/03/09 04:40:37;;;;;;;11.07;9.98;;;7.90;86.20;;;;;;5009241;28;112705;-46
2024/03/09 04:43:04;;;;;;;11.70;10.55;;;7.90;86.20;;;;;;5007468;28;115675;-48
2024/03/09 04:45:31;;;;;;;12.18;10.48;;;8.00;86.00;;;;;;5007950;28;112862;-55
2024/03/09 04:48:01;;;;;;;13.05;11.02;;;7.90;86.10;;;;;;5008224;28;112753;-53
2024/03/09 04:50:31;;;;;;;12.68;11.00;;;7.80;86.50;;;;;;5008691;28;112760;-42
2024/03/09 04:52:58;;;;;;;12.30;10.98;;;7.90;86.60;;;;;;5007211;28;114602;-50
2024/03/09 04:55:30;;;;;;;12.13;10.48;;;7.90;86.20;;;;;;5000444;28;113797;-43
2024/03/09 04:57:59;;;;;;;12.05;10.77;;;7.90;86.40;;;;;;5002319;28;112458;-46
2024/03/09 05:00:28;;;;;;;12.35;11.05;;;8.00;86.30;;;;;;4994726;28;112833;-41
2024/03/09 05:02:55;;;;;;;11.88;10.60;;;7.90;86.40;;;;;;5007528;28;114859;-44
2024/03/09 05:05:21;;;;;;;11.85;10.65;;;7.90;86.50;;;;;;5007341;28;112667;-45
2024/03/09 05:07:51;;;;;;;11.20;10.05;;;7.90;86.50;;;;;;5008468;28;112471;-44
2024/03/09 05:10:18;;;;;;;11.88;10.68;;;7.90;86.10;;;;;;5007123;28;112751;-47
2024/03/09 05:12:50;;;;;;;13.68;10.40;;;7.80;86.60;;;;;;5007250;28;114671;-42
2024/03/09 05:15:16;;;;;;;13.40;10.50;;;7.90;86.50;;;;;;5007053;28;113767;-48
2024/03/09 05:17:41;;;;;;;13.40;10.93;;;7.90;86.70;;;;;;5008379;28;112898;-44
2024/03/09 05:20:25;;;;;;;11.13;10.02;;;7.90;86.50;;;;;;5008144;28;112734;-42
2024/03/09 05:22:53;;;;;;;11.60;10.40;;;7.90;86.60;;;;;;5005727;28;114814;-46
2024/03/09 05:25:21;;;;;;;11.95;10.35;;;7.90;86.80;;;;;;5006775;28;113977;-46
2024/03/09 05:27:47;;;;;;;13.35;10.82;;;7.90;86.80;;;;;;5008116;28;112783;-48
2024/03/09 05:30:16;;;;;;;11.90;9.35;;;8.10;86.50;;;;;;5007584;28;112683;-49
2024/03/09 05:32:57;;;;;;;13.68;12.23;;;8.10;86.10;;;;;;5007745;28;113225;-46
2024/03/09 05:35:34;;;;;;;12.43;10.18;;;8.10;86.30;;;;;;5007022;28;112695;-45
2024/03/09 05:38:00;;;;;;;11.30;10.00;;;7.90;86.70;;;;;;5008219;28;112759;-41
2024/03/09 05:40:29;;;;;;;11.50;10.30;;;8.00;86.80;;;;;;5008627;28;112789;-49
2024/03/09 05:42:56;;;;;;;11.52;10.43;;;8.00;86.80;;;;;;5006694;28;113773;-55
2024/03/09 05:45:22;;;;;;;12.57;10.57;;;8.00;87.10;;;;;;5006683;28;113813;-48
2024/03/09 05:47:54;;;;;;;12.27;10.98;;;8.00;86.80;;;;;;5007735;28;112745;-44
2024/03/09 05:50:21;;;;;;;11.87;10.47;;;8.10;86.80;;;;;;5007884;28;112907;-44
2024/03/09 05:52:49;;;;;;;11.95;10.25;;;8.10;86.60;;;;;;5006586;28;113161;-49
2024/03/09 05:55:16;;;;;;;13.15;10.85;;;8.10;86.80;;;;;;5000831;28;113722;-46
2024/03/09 05:57:43;;;;;;;11.73;10.10;;;8.10;86.70;;;;;;4999578;28;112567;-48
2024/03/09 06:00:16;;;;;;;10.80;9.70;;;8.10;86.60;;;;;;5007675;28;112826;-45
2024/03/09 06:02:44;;;;;;;12.10;10.32;;;8.10;86.70;;;;;;5007458;28;115120;-49
2024/03/09 06:05:10;;;;;;;11.90;10.65;;;8.10;86.70;;;;;;5006273;28;112726;-48
2024/03/09 06:07:40;;;;;;;11.70;10.18;;;8.10;87.00;;;;;;5007668;28;112874;-45
2024/03/09 06:10:07;;;;;;;11.00;9.80;;;7.90;87.00;;;;;;5007218;28;113184;-43
2024/03/09 06:12:38;;;;;;;10.52;9.35;;;8.00;86.90;;;;;;5007310;28;113985;-45
2024/03/09 06:15:07;;;;;;;10.48;9.43;;;8.00;87.00;;;;;;5006935;28;113871;-42
2024/03/09 06:17:33;;;;;;;10.52;9.38;;;8.10;86.90;;;;;;5007871;28;112745;-46
2024/03/09 06:20:02;;;;;;;11.77;9.60;;;8.00;87.00;;;;;;5008409;28;113042;-48
2024/03/09 06:22:30;;;;;;;10.27;9.00;;;8.00;87.00;;;;;;5006778;28;113223;-44
2024/03/09 06:24:56;;;;;;;9.85;8.52;;;8.10;87.20;;;;;;5007194;28;112583;-41
2024/03/09 06:27:21;;;;;;;10.63;9.02;;;8.10;86.80;;;;;;5008287;28;112683;-53
2024/03/09 06:29:47;;;;;;;8.48;7.68;;;8.00;86.80;;;;;;5007830;28;112668;-49
2024/03/09 06:32:15;;;;;;;12.02;10.75;;;8.10;86.90;;;;;;5006681;28;114308;-42
2024/03/09 06:34:43;;;;;;;9.55;8.38;;;8.10;86.90;;;;;;5006162;28;112898;-51
2024/03/09 06:37:13;;;;;;;10.20;8.68;;;8.10;86.70;;;;;;5007862;28;113075;-42
2024/03/09 06:39:39;;;;;;;9.02;8.13;;;8.10;86.80;;;;;;5007909;28;112744;-44
2024/03/09 06:42:09;;;;;;;9.77;8.77;;;8.10;86.80;;;;;;5007337;28;113357;-43
2024/03/09 06:44:38;;;;;;;9.07;8.10;;;8.20;86.60;;;;;;5006702;28;113646;-42
2024/03/09 06:47:07;;;;;;;9.50;8.57;;;8.20;86.50;;;;;;5007757;28;112556;-45
2024/03/09 06:49:36;;;;;;;10.20;9.20;;;8.10;86.80;;;;;;5007793;28;112643;-43
2024/03/09 06:52:05;;;;;;;9.43;8.52;;;8.10;87.20;;;;;;5006964;28;112910;-51
2024/03/09 06:54:31;;;;;;;9.25;8.27;;;8.20;86.80;;;;;;5006533;28;113656;-42
2024/03/09 06:56:57;;;;;;;10.93;9.82;;;8.30;86.50;;;;;;4993502;28;112450;-47
2024/03/09 06:59:23;;;;;;;9.48;8.25;;;8.40;86.00;;;;;;5007505;28;112725;-47
2024/03/09 07:01:57;;;;;;;9.80;8.90;;;8.30;86.30;;;;;;5006507;28;113699;-46
2024/03/09 07:04:25;;;;;;;9.93;8.93;;;8.30;86.70;;;;;;5006472;28;113718;-48
2024/03/09 07:06:56;;;;;;;10.48;9.38;;;8.30;86.80;;;;;;5007545;28;112882;-53
2024/03/09 07:09:22;;;;;;;10.48;9.30;;;8.30;86.70;;;;;;5007547;28;112679;-48
2024/03/09 07:11:51;;;;;;;11.70;10.30;;;8.30;86.80;;;;;;5005912;28;114431;-50
2024/03/09 07:14:24;;;;;;;13.40;9.02;;;8.30;86.70;;;;;;5005482;28;112912;-47
2024/03/09 07:16:51;;;;;;;10.27;8.82;;;8.30;86.80;;;;;;5007641;28;112559;-48
2024/03/09 07:19:17;;;;;;;10.00;9.05;;;8.40;86.60;;;;;;5007622;28;112685;-49
2024/03/09 07:21:42;;;;;;;10.07;8.80;;;8.40;86.50;;;;;;5006588;28;113124;-48
2024/03/09 07:24:09;;;;;;;9.38;8.48;;;8.40;86.50;;;;;;5005727;28;113621;-48
2024/03/09 07:26:39;;;;;;;10.23;9.23;;;8.40;86.90;;;;;;5007459;28;112823;-47
2024/03/09 07:29:05;;;;;;;10.15;8.57;;;8.40;86.80;;;;;;5007420;28;112658;-48
2024/03/09 07:31:31;;;;;;;11.73;9.43;;;8.50;86.70;;;;;;5006102;28;114676;-46
2024/03/09 07:33:57;;;;;;;9.68;8.68;;;8.50;86.80;;;;;;5008722;28;112712;-51
2024/03/09 07:36:23;;;;;;;9.93;8.60;;;8.50;86.80;;;;;;5010740;28;112585;-49
2024/03/09 07:38:52;;;;;;;8.95;8.05;;;8.40;86.80;;;;;;5010400;28;112720;-43
2024/03/09 07:41:21;;;;;;;9.00;8.10;;;8.60;86.90;;;;;;5010220;28;113316;-48
2024/03/09 07:43:47;;;;;;;9.20;8.30;;;8.60;86.70;;;;;;5009546;28;114481;-42
2024/03/09 07:46:13;;;;;;;11.35;9.95;;;8.50;86.90;;;;;;5010511;28;112666;-48
2024/03/09 07:48:40;;;;;;;9.68;8.55;;;8.60;87.00;;;;;;5010465;28;112729;-45
2024/03/09 07:51:08;;;;;;;9.50;8.55;;;8.70;86.70;;;;;;5009385;28;113250;-44
2024/03/09 07:53:34;;;;;;;9.23;8.23;;;8.70;86.70;;;;;;5009480;28;112655;-46
2024/03/09 07:56:00;;;;;;;8.02;7.30;;;8.90;86.60;;;;;;4998634;28;112627;-47
2024/03/09 07:58:26;;;;;;;8.35;7.38;;;8.90;86.50;;;;;;5008510;28;113022;-44
2024/03/09 08:00:52;;;;;;;8.20;6.40;;;9.00;85.90;;;;;;5009377;28;113559;-44
2024/03/09 08:03:20;;;;;;;6.88;6.28;;;9.00;85.90;;;;;;5009098;28;112685;-42
2024/03/09 08:05:45;;;;;;;8.10;6.95;;;9.10;85.90;;;;;;5010488;28;112956;-46
2024/03/09 08:08:11;;;;;;;7.38;6.28;;;9.10;85.50;;;;;;5010053;28;113086;-46
2024/03/09 08:10:46;;;;;;;7.00;5.72;;;9.20;85.50;;;;;;5008973;28;114453;-47
2024/03/09 08:13:13;;;;;;;6.75;6.05;;;9.20;85.40;;;;;;5008887;28;112597;-43
2024/03/09 08:15:39;;;;;;;6.75;6.07;;;9.30;85.70;;;;;;5010199;28;112539;-48
2024/03/09 08:18:08;;;;;;;6.35;5.40;;;9.30;85.50;;;;;;5010046;28;112974;-42
2024/03/09 08:20:34;;;;;;;6.30;5.70;;;9.40;85.00;;;;;;5008692;28;113208;-45
2024/03/09 08:23:01;;;;;;;5.75;5.25;;;9.40;85.30;;;;;;5009058;28;112687;-42
2024/03/09 08:25:27;;;;;;;6.03;4.90;;;9.40;85.10;;;;;;5009676;28;112673;-46
2024/03/09 08:27:54;;;;;;;4.90;4.50;;;9.40;85.10;;;;;;5010116;28;112650;-41
2024/03/09 08:30:21;;;;;;;6.63;4.68;;;9.40;85.20;;;;;;5008792;28;115606;-47
2024/03/09 08:32:53;;;;;;;6.28;4.70;;;9.60;84.90;;;;;;5008750;28;112939;-56
2024/03/09 08:35:20;;;;;;;4.38;3.60;;;9.60;84.70;;;;;;5009662;28;112981;-50
2024/03/09 08:37:48;;;;;;;3.30;3.00;;;9.60;83.40;;;;;;5009591;28;112830;-43
2024/03/09 08:40:19;;;;;;;3.33;3.03;;;9.70;83.30;;;;;;5009172;28;113416;-42
2024/03/09 08:42:54;;;;;;;3.53;2.92;;;9.80;83.30;;;;;;4992114;28;113702;-57
2024/03/09 08:45:24;;;;;;;3.63;3.05;;;9.80;82.80;;;;;;4992765;28;112701;-55
2024/03/09 08:47:52;;;;;;;3.72;3.30;;;9.70;82.70;;;;;;4993506;28;112618;-53
2024/03/09 08:50:21;;;;;;;3.75;3.03;;;9.80;82.80;;;;;;4995001;28;113658;-50
2024/03/09 08:52:47;;;;;;;3.20;2.90;;;9.90;83.00;;;;;;4996742;28;112726;-45
2024/03/09 08:55:14;;;;;;;2.85;2.65;;;10.00;81.90;;;;;;4996503;28;112836;-48
2024/03/09 08:57:42;;;;;;;2.60;2.40;;;10.00;82.10;;;;;;4990593;28;112979;-47
2024/03/09 09:00:08;;;;;;;2.38;2.17;;;10.00;81.90;;;;;;4991926;28;114576;-41
2024/03/09 09:02:37;;;;;;;3.42;2.58;;;10.00;81.50;;;;;;4991567;28;112704;-47
2024/03/09 09:05:11;;;;;;;2.83;2.50;;;10.30;82.40;;;;;;4997680;28;112900;-46
2024/03/09 09:07:40;;;;;;;2.55;2.35;;;10.40;81.60;;;;;;4997493;28;113017;-49
2024/03/09 09:10:10;;;;;;;2.55;2.03;;;10.40;80.90;;;;;;4999359;28;114931;-47
2024/03/09 09:12:39;;;;;;;2.20;2.00;;;10.50;80.80;;;;;;4999547;28;113612;-49
2024/03/09 09:15:07;;;;;;;2.05;1.88;;;10.60;80.40;;;;;;5003952;28;113011;-47
2024/03/09 09:17:33;;;;;;;1.90;1.80;;;10.50;80.20;;;;;;4999560;28;112871;-48
2024/03/09 09:19:59;;;;;;;2.10;1.90;;;10.80;80.40;;;;;;4992479;28;115030;-49
2024/03/09 09:22:25;;;;;;;2.80;1.75;;;10.80;79.60;;;;;;4986775;28;113720;-44
2024/03/09 09:24:52;;;;;;;3.38;1.95;;;10.90;79.30;;;;;;5000418;28;112515;-45
2024/03/09 09:27:18;;;;;;;1.60;1.50;;;10.90;79.40;;;;;;4995280;28;112847;-51
2024/03/09 09:29:44;;;;;;;1.40;1.30;;;10.80;78.70;;;;;;4992639;28;114288;-52
2024/03/09 09:32:10;;;;;;;1.83;1.33;;;10.60;79.70;;;;;;4989022;28;112557;-54
2024/03/09 09:34:36;;;;;;;1.92;1.30;;;10.50;79.40;;;;;;5001330;28;112673;-48
2024/03/09 09:37:02;;;;;;;1.30;1.20;;;10.50;79.20;;;;;;4989121;28;112701;-44
2024/03/09 09:39:33;;;;;;;1.38;1.20;;;10.70;78.70;;;;;;4986254;28;114911;-42
2024/03/09 09:41:59;;;;;;;1.50;1.40;;;10.60;78.70;;;;;;4998760;28;113780;-56
2024/03/09 09:44:29;;;;;;;1.30;1.20;;;10.60;78.20;;;;;;4990189;28;114937;-41
2024/03/09 09:46:58;;;;;;;1.85;1.55;;;10.50;78.40;;;;;;4989005;28;113058;-48
2024/03/09 09:49:27;;;;;;;1.70;1.35;;;10.60;79.10;;;;;;4987718;28;113250;-42
2024/03/09 09:51:57;;;;;;;1.75;1.63;;;10.80;79.00;;;;;;4987233;28;112679;-51
2024/03/09 09:54:26;;;;;;;2.85;2.58;;;10.70;77.90;;;;;;4988068;28;112988;-48
2024/03/09 09:56:54;;;;;;;3.92;2.08;;;10.70;79.10;;;;;;4992760;28;112836;-46
2024/03/09 09:59:20;;;;;;;2.28;2.08;;;10.80;78.80;;;;;;5007539;28;113407;-49
2024/03/09 10:01:46;;;;;;;2.28;1.50;;;11.00;78.20;;;;;;5007652;28;112994;-49
2024/03/09 10:04:12;;;;;;;1.67;1.17;;;10.90;77.20;;;;;;5008357;28;112631;-50
2024/03/09 10:06:38;;;;;;;1.45;1.17;;;10.80;77.50;;;;;;5008092;28;112958;-48
2024/03/09 10:09:04;;;;;;;2.42;1.13;;;10.80;78.00;;;;;;5007730;28;113969;-49
2024/03/09 10:11:31;;;;;;;1.52;1.23;;;10.90;78.50;;;;;;5007438;28;113143;-50
2024/03/09 10:14:01;;;;;;;1.67;1.55;;;11.10;78.00;;;;;;5008151;28;112999;-53
2024/03/09 10:16:34;;;;;;;1.27;1.17;;;11.00;78.20;;;;;;5008154;28;112813;-52
2024/03/09 10:19:00;;;;;;;1.65;1.55;;;11.00;78.70;;;;;;5007098;28;114369;-54
2024/03/09 10:21:29;;;;;;;2.72;1.90;;;10.90;78.80;;;;;;5007281;28;112708;-48
2024/03/09 10:24:04;;;;;;;2.17;1.92;;;11.00;79.40;;;;;;5008141;28;112732;-51
2024/03/09 10:26:30;;;;;;;0.90;0.90;;;11.10;79.50;;;;;;5008337;28;114933;-44
2024/03/09 10:29:00;;;;;;;1.17;0.90;;;11.10;78.50;;;;;;5006918;28;113348;-43
2024/03/09 10:31:27;;;;;;;0.95;0.90;;;11.20;78.80;;;;;;5006972;28;115513;-46
2024/03/09 10:33:56;;;;;;;1.33;1.23;;;11.30;78.40;;;;;;5008017;28;112820;-45
2024/03/09 10:36:23;;;;;;;1.23;1.13;;;11.40;77.90;;;;;;5008252;28;112924;-46
2024/03/09 10:38:55;;;;;;;0.93;0.93;;;11.50;78.50;;;;;;5006825;28;113766;-42
2024/03/09 10:41:25;;;;;;;1.55;1.45;;;11.50;77.60;;;;;;5007196;28;113854;-42
2024/03/09 10:43:53;;;;;;;0.90;0.90;;;11.60;77.50;;;;;;5007777;28;112567;-44
2024/03/09 10:46:27;;;;;;;2.17;0.80;;;11.80;77.70;;;;;;5007674;28;112966;-41
2024/03/09 10:48:57;;;;;;;0.98;0.98;;;11.90;76.60;;;;;;5006775;28;114535;-53
2024/03/09 10:51:45;;;;;;;1.10;1.00;;;12.20;76.20;;;;;;5006412;28;114334;-45
2024/03/09 10:54:17;;;;;;;1.60;1.20;;;12.40;75.00;;;;;;5007675;28;112826;-47
2024/03/09 10:56:46;;;;;;;1.92;1.20;;;12.10;74.70;;;;;;4993715;28;112805;-44
2024/03/09 10:59:13;;;;;;;1.58;1.27;;;12.30;75.40;;;;;;5006931;28;113326;-44
2024/03/09 11:01:39;;;;;;;1.55;1.23;;;12.50;74.50;;;;;;5006653;28;113802;-46
2024/03/09 11:04:07;;;;;;;1.35;1.25;;;12.40;74.70;;;;;;5007881;28;112740;-51
2024/03/09 11:06:34;;;;;;;1.20;1.10;;;12.70;73.60;;;;;;5007881;28;112651;-44
2024/03/09 11:09:03;;;;;;;2.58;1.00;;;12.90;73.60;;;;;;5010158;28;114483;-51
2024/03/09 11:11:31;;;;;;;1.27;0.80;;;12.90;72.90;;;;;;5009840;28;113690;-48
2024/03/09 11:14:02;;;;;;;0.93;0.90;;;12.80;72.70;;;;;;5010805;28;112574;-46
2024/03/09 11:16:29;;;;;;;1.00;0.70;;;12.50;73.60;;;;;;5011425;28;112530;-49
2024/03/09 11:18:55;;;;;;;0.93;0.93;;;12.50;74.10;;;;;;5009849;28;113408;-46
2024/03/09 11:21:35;;;;;;;1.92;0.80;;;12.60;74.30;;;;;;5012245;28;112688;-47
2024/03/09 11:24:08;;;;;;;1.00;1.00;;;12.70;73.30;;;;;;5011272;28;112669;-48
2024/03/09 11:26:40;;;;;;;1.20;1.10;;;12.80;73.80;;;;;;4996853;28;114191;-56
2024/03/09 11:29:10;;;;;;;1.10;1.00;;;12.60;73.80;;;;;;5004928;28;113175;-50
2024/03/09 11:31:42;;;;;;;2.65;0.98;;;12.10;75.00;;;;;;5000310;28;113758;-51
2024/03/09 11:34:21;;;;;;;1.10;0.90;;;12.00;76.00;;;;;;5003929;28;112835;-43
2024/03/09 11:36:51;;;;;;;1.52;1.30;;;11.90;76.40;;;;;;5000844;28;112840;-54
2024/03/09 11:39:28;;;;;;;1.30;1.20;;;11.90;76.30;;;;;;5007189;28;114952;-41
2024/03/09 11:42:00;;;;;;;1.10;1.00;;;12.00;76.90;;;;;;5009160;28;113773;-43
2024/03/09 11:44:27;;;;;;;2.03;1.80;;;11.90;76.50;;;;;;5007423;28;112981;-45
2024/03/09 11:46:56;;;;;;;1.75;1.40;;;11.90;77.50;;;;;;4999060;28;113013;-51
2024/03/09 11:49:27;;;;;;;1.45;1.02;;;11.80;77.00;;;;;;5007519;28;113224;-50
2024/03/09 11:51:56;;;;;;;1.27;1.17;;;11.80;76.70;;;;;;5009109;28;113252;-43
2024/03/09 11:54:24;;;;;;;1.55;0.98;;;11.90;77.20;;;;;;4993613;28;112745;-44
2024/03/09 11:56:51;;;;;;;2.00;1.10;;;11.90;77.20;;;;;;4994973;28;112778;-45
2024/03/09 11:59:17;;;;;;;1.95;1.25;;;11.90;76.70;;;;;;5008930;28;114512;-41
2024/03/09 12:01:44;;;;;;;1.67;1.40;;;12.00;77.40;;;;;;4999905;28;112684;-46
2024/03/09 12:04:10;;;;;;;1.30;1.20;;;12.10;76.40;;;;;;4997188;28;113035;-45
2024/03/09 12:06:40;;;;;;;1.77;1.30;;;12.20;76.50;;;;;;4995111;28;112780;-45
2024/03/09 12:09:07;;;;;;;1.77;1.60;;;12.40;75.90;;;;;;4987657;28;115101;-45
2024/03/09 12:11:34;;;;;;;1.73;1.42;;;12.30;76.50;;;;;;4988805;28;114307;-56
2024/03/09 12:14:01;;;;;;;2.33;1.70;;;12.30;76.10;;;;;;4990282;28;112799;-45
2024/03/09 12:16:28;;;;;;;1.70;1.60;;;12.20;76.40;;;;;;4990259;28;112844;-48
2024/03/09 12:18:56;;;;;;;1.42;1.00;;;12.30;76.90;;;;;;4988079;28;113038;-55
2024/03/09 12:21:25;;;;;;;3.67;1.80;;;12.30;76.50;;;;;;4988639;28;113955;-47
2024/03/09 12:23:53;;;;;;;2.72;1.60;;;12.40;76.50;;;;;;4989745;28;112639;-46
2024/03/09 12:26:23;;;;;;;2.83;1.50;;;12.40;76.60;;;;;;4989793;28;112909;-52
2024/03/09 12:28:49;;;;;;;1.35;1.20;;;12.40;76.40;;;;;;4988559;28;113108;-47
2024/03/09 12:31:15;;;;;;;1.77;1.60;;;12.40;76.50;;;;;;4988821;28;113636;-52
2024/03/09 12:33:43;;;;;;;1.52;1.30;;;12.00;77.10;;;;;;4989818;28;112775;-48
2024/03/09 12:36:10;;;;;;;2.13;1.60;;;12.20;77.10;;;;;;4990223;28;113197;-51
2024/03/09 12:38:37;;;;;;;1.50;1.00;;;12.30;76.70;;;;;;4989050;28;113676;-42
2024/03/09 12:41:06;;;;;;;2.00;1.30;;;12.70;76.10;;;;;;4988983;28;112996;-50